sensor_id;sensor_type;location;lat;lon;timestamp;P1;durP1;ratioP1;P2;durP2;ratioP2
19879;SDS011;10102;50.828;4.416;2022-12-10T00:00:36;48.22;;;19.20;;
19879;SDS011;10102;50.828;4.416;2022-12-10T00:03:02;40.38;;;17.83;;
19879;SDS011;10102;50.828;4.416;2022-12-10T00:05:28;47.65;;;20.70;;
19879;SDS011;10102;50.828;4.416;2022-12-10T00:07:53;43.10;;;19.85;;
19879;SDS011;10102;50.828;4.416;2022-12-10T00:10:19;48.08;;;18.95;;
19879;SDS011;10102;50.828;4.416;2022-12-10T00:12:45;42.85;;;19.30;;
19879;SDS011;10102;50.828;4.416;2022-12-10T00:15:10;50.45;;;21.02;;
19879;SDS011;10102;50.828;4.416;2022-12-10T00:17:36;48.35;;;20.80;;
19879;SDS011;10102;50.828;4.416;2022-12-10T00:20:02;51.10;;;19.90;;
19879;SDS011;10102;50.828;4.416;2022-12-10T00:22:28;49.03;;;20.13;;
19879;SDS011;10102;50.828;4.416;2022-12-10T00:24:53;50.15;;;20.70;;
19879;SDS011;10102;50.828;4.416;2022-12-10T00:27:19;49.67;;;20.42;;
19879;SDS011;10102;50.828;4.416;2022-12-10T00:29:45;49.15;;;20.00;;
19879;SDS011;10102;50.828;4.416;2022-12-10T00:32:11;41.38;;;19.58;;
19879;SDS011;10102;50.828;4.416;2022-12-10T00:34:36;45.65;;;18.42;;
19879;SDS011;10102;50.828;4.416;2022-12-10T00:37:02;45.15;;;20.10;;
19879;SDS011;10102;50.828;4.416;2022-12-10T00:39:28;55.88;;;20.58;;
19879;SDS011;10102;50.828;4.416;2022-12-10T00:41:54;44.05;;;19.98;;
19879;SDS011;10102;50.828;4.416;2022-12-10T00:44:20;42.65;;;17.70;;
19879;SDS011;10102;50.828;4.416;2022-12-10T00:46:46;46.80;;;19.38;;
19879;SDS011;10102;50.828;4.416;2022-12-10T00:49:12;48.88;;;21.35;;
19879;SDS011;10102;50.828;4.416;2022-12-10T00:51:38;48.75;;;20.73;;
19879;SDS011;10102;50.828;4.416;2022-12-10T00:54:03;47.55;;;18.52;;
19879;SDS011;10102;50.828;4.416;2022-12-10T00:56:30;48.73;;;20.13;;
19879;SDS011;10102;50.828;4.416;2022-12-10T00:58:57;48.40;;;20.25;;
19879;SDS011;10102;50.828;4.416;2022-12-10T01:01:28;48.08;;;18.75;;
19879;SDS011;10102;50.828;4.416;2022-12-10T01:04:03;48.50;;;19.77;;
19879;SDS011;10102;50.828;4.416;2022-12-10T01:06:32;43.70;;;18.70;;
19879;SDS011;10102;50.828;4.416;2022-12-10T01:09:01;42.70;;;18.17;;
19879;SDS011;10102;50.828;4.416;2022-12-10T01:11:32;40.00;;;17.73;;
19879;SDS011;10102;50.828;4.416;2022-12-10T01:13:59;43.15;;;18.35;;
19879;SDS011;10102;50.828;4.416;2022-12-10T01:16:25;55.17;;;19.40;;
19879;SDS011;10102;50.828;4.416;2022-12-10T01:18:54;46.88;;;18.45;;
19879;SDS011;10102;50.828;4.416;2022-12-10T01:21:21;52.35;;;20.05;;
19879;SDS011;10102;50.828;4.416;2022-12-10T01:23:48;43.25;;;18.52;;
19879;SDS011;10102;50.828;4.416;2022-12-10T01:26:16;47.33;;;18.85;;
19879;SDS011;10102;50.828;4.416;2022-12-10T01:28:44;46.28;;;17.38;;
19879;SDS011;10102;50.828;4.416;2022-12-10T01:31:15;43.63;;;19.07;;
19879;SDS011;10102;50.828;4.416;2022-12-10T01:33:51;44.40;;;19.13;;
19879;SDS011;10102;50.828;4.416;2022-12-10T01:36:18;49.92;;;19.98;;
19879;SDS011;10102;50.828;4.416;2022-12-10T01:38:49;43.63;;;17.23;;
19879;SDS011;10102;50.828;4.416;2022-12-10T01:41:16;45.63;;;20.27;;
19879;SDS011;10102;50.828;4.416;2022-12-10T01:43:55;40.53;;;17.60;;
19879;SDS011;10102;50.828;4.416;2022-12-10T01:46:27;38.83;;;17.80;;
19879;SDS011;10102;50.828;4.416;2022-12-10T01:48:58;42.03;;;18.37;;
19879;SDS011;10102;50.828;4.416;2022-12-10T01:51:27;25.17;;;12.60;;
19879;SDS011;10102;50.828;4.416;2022-12-10T01:53:54;45.47;;;18.05;;
19879;SDS011;10102;50.828;4.416;2022-12-10T01:56:20;42.23;;;18.83;;
19879;SDS011;10102;50.828;4.416;2022-12-10T01:58:48;45.88;;;18.77;;
19879;SDS011;10102;50.828;4.416;2022-12-10T02:01:28;42.28;;;17.98;;
19879;SDS011;10102;50.828;4.416;2022-12-10T02:06:59;42.53;;;17.38;;
19879;SDS011;10102;50.828;4.416;2022-12-10T02:09:38;46.38;;;19.48;;
19879;SDS011;10102;50.828;4.416;2022-12-10T02:14:41;42.65;;;19.27;;
19879;SDS011;10102;50.828;4.416;2022-12-10T02:17:52;45.67;;;18.67;;
19879;SDS011;10102;50.828;4.416;2022-12-10T02:20:02;43.28;;;19.55;;
19879;SDS011;10102;50.828;4.416;2022-12-10T02:22:51;47.42;;;20.52;;
19879;SDS011;10102;50.828;4.416;2022-12-10T02:25:32;47.15;;;19.20;;
19879;SDS011;10102;50.828;4.416;2022-12-10T02:28:20;50.78;;;20.15;;
19879;SDS011;10102;50.828;4.416;2022-12-10T02:30:57;48.75;;;20.67;;
19879;SDS011;10102;50.828;4.416;2022-12-10T02:33:25;49.03;;;20.10;;
19879;SDS011;10102;50.828;4.416;2022-12-10T02:35:53;51.58;;;22.92;;
19879;SDS011;10102;50.828;4.416;2022-12-10T02:38:23;45.88;;;19.05;;
19879;SDS011;10102;50.828;4.416;2022-12-10T02:40:58;49.20;;;21.38;;
19879;SDS011;10102;50.828;4.416;2022-12-10T02:43:45;46.55;;;21.63;;
19879;SDS011;10102;50.828;4.416;2022-12-10T02:46:15;49.53;;;21.02;;
19879;SDS011;10102;50.828;4.416;2022-12-10T02:48:41;47.17;;;20.47;;
19879;SDS011;10102;50.828;4.416;2022-12-10T02:51:07;45.75;;;19.08;;
19879;SDS011;10102;50.828;4.416;2022-12-10T02:53:33;47.92;;;20.33;;
19879;SDS011;10102;50.828;4.416;2022-12-10T03:01:35;48.10;;;22.17;;
19879;SDS011;10102;50.828;4.416;2022-12-10T03:06:39;55.05;;;22.48;;
19879;SDS011;10102;50.828;4.416;2022-12-10T03:09:13;55.28;;;22.70;;
19879;SDS011;10102;50.828;4.416;2022-12-10T03:11:45;54.85;;;23.00;;
19879;SDS011;10102;50.828;4.416;2022-12-10T03:14:17;53.40;;;22.92;;
19879;SDS011;10102;50.828;4.416;2022-12-10T03:16:50;54.33;;;24.17;;
19879;SDS011;10102;50.828;4.416;2022-12-10T03:19:21;56.42;;;23.92;;
19879;SDS011;10102;50.828;4.416;2022-12-10T03:21:50;63.30;;;24.45;;
19879;SDS011;10102;50.828;4.416;2022-12-10T03:24:18;55.53;;;25.33;;
19879;SDS011;10102;50.828;4.416;2022-12-10T03:26:47;56.92;;;24.60;;
19879;SDS011;10102;50.828;4.416;2022-12-10T03:29:19;55.20;;;24.33;;
19879;SDS011;10102;50.828;4.416;2022-12-10T03:31:55;61.63;;;24.50;;
19879;SDS011;10102;50.828;4.416;2022-12-10T03:34:23;62.33;;;26.23;;
19879;SDS011;10102;50.828;4.416;2022-12-10T03:36:49;64.90;;;27.23;;
19879;SDS011;10102;50.828;4.416;2022-12-10T03:39:16;64.65;;;25.80;;
19879;SDS011;10102;50.828;4.416;2022-12-10T03:41:42;64.28;;;26.48;;
19879;SDS011;10102;50.828;4.416;2022-12-10T03:44:08;74.15;;;28.05;;
19879;SDS011;10102;50.828;4.416;2022-12-10T03:46:34;63.83;;;27.65;;
19879;SDS011;10102;50.828;4.416;2022-12-10T03:49:03;77.18;;;28.45;;
19879;SDS011;10102;50.828;4.416;2022-12-10T03:51:29;66.20;;;27.20;;
19879;SDS011;10102;50.828;4.416;2022-12-10T03:53:55;73.93;;;29.27;;
19879;SDS011;10102;50.828;4.416;2022-12-10T03:56:21;78.93;;;29.17;;
19879;SDS011;10102;50.828;4.416;2022-12-10T03:58:47;76.45;;;29.63;;
19879;SDS011;10102;50.828;4.416;2022-12-10T04:01:13;76.53;;;30.73;;
19879;SDS011;10102;50.828;4.416;2022-12-10T04:03:39;78.63;;;29.70;;
19879;SDS011;10102;50.828;4.416;2022-12-10T04:06:07;75.25;;;29.50;;
19879;SDS011;10102;50.828;4.416;2022-12-10T04:08:35;81.03;;;30.38;;
19879;SDS011;10102;50.828;4.416;2022-12-10T04:11:05;75.35;;;30.00;;
19879;SDS011;10102;50.828;4.416;2022-12-10T04:13:33;75.28;;;28.45;;
19879;SDS011;10102;50.828;4.416;2022-12-10T04:16:18;68.97;;;28.45;;
19879;SDS011;10102;50.828;4.416;2022-12-10T04:18:57;78.68;;;28.55;;
19879;SDS011;10102;50.828;4.416;2022-12-10T04:21:30;76.03;;;29.08;;
19879;SDS011;10102;50.828;4.416;2022-12-10T04:24:18;67.65;;;27.05;;
19879;SDS011;10102;50.828;4.416;2022-12-10T04:27:06;68.75;;;27.35;;
19879;SDS011;10102;50.828;4.416;2022-12-10T04:29:37;68.85;;;26.85;;
19879;SDS011;10102;50.828;4.416;2022-12-10T04:32:03;64.15;;;27.23;;
19879;SDS011;10102;50.828;4.416;2022-12-10T04:34:29;74.60;;;26.65;;
19879;SDS011;10102;50.828;4.416;2022-12-10T04:36:55;74.28;;;27.15;;
19879;SDS011;10102;50.828;4.416;2022-12-10T04:39:23;75.28;;;25.92;;
19879;SDS011;10102;50.828;4.416;2022-12-10T04:41:48;74.47;;;28.70;;
19879;SDS011;10102;50.828;4.416;2022-12-10T04:44:15;75.03;;;27.83;;
19879;SDS011;10102;50.828;4.416;2022-12-10T04:46:41;73.93;;;28.77;;
19879;SDS011;10102;50.828;4.416;2022-12-10T04:49:06;79.80;;;28.75;;
19879;SDS011;10102;50.828;4.416;2022-12-10T04:51:33;90.07;;;31.77;;
19879;SDS011;10102;50.828;4.416;2022-12-10T04:53:58;74.20;;;27.88;;
19879;SDS011;10102;50.828;4.416;2022-12-10T04:56:25;87.70;;;31.10;;
19879;SDS011;10102;50.828;4.416;2022-12-10T04:58:51;82.57;;;30.40;;
19879;SDS011;10102;50.828;4.416;2022-12-10T05:01:17;77.75;;;29.30;;
19879;SDS011;10102;50.828;4.416;2022-12-10T05:03:45;76.78;;;28.67;;
19879;SDS011;10102;50.828;4.416;2022-12-10T05:06:12;54.72;;;20.42;;
19879;SDS011;10102;50.828;4.416;2022-12-10T05:08:40;76.75;;;27.75;;
19879;SDS011;10102;50.828;4.416;2022-12-10T05:11:07;78.45;;;28.65;;
19879;SDS011;10102;50.828;4.416;2022-12-10T05:13:44;77.20;;;26.95;;
19879;SDS011;10102;50.828;4.416;2022-12-10T05:16:11;67.13;;;24.90;;
19879;SDS011;10102;50.828;4.416;2022-12-10T05:18:38;67.63;;;26.13;;
19879;SDS011;10102;50.828;4.416;2022-12-10T05:21:06;61.95;;;22.33;;
19879;SDS011;10102;50.828;4.416;2022-12-10T05:23:35;66.57;;;24.75;;
19879;SDS011;10102;50.828;4.416;2022-12-10T05:28:34;60.88;;;21.25;;
19879;SDS011;10102;50.828;4.416;2022-12-10T05:31:02;66.63;;;23.38;;
19879;SDS011;10102;50.828;4.416;2022-12-10T05:33:28;62.35;;;22.58;;
19879;SDS011;10102;50.828;4.416;2022-12-10T05:35:55;63.45;;;21.35;;
19879;SDS011;10102;50.828;4.416;2022-12-10T05:38:26;57.70;;;22.25;;
19879;SDS011;10102;50.828;4.416;2022-12-10T05:40:53;59.47;;;22.27;;
19879;SDS011;10102;50.828;4.416;2022-12-10T05:43:19;71.05;;;24.17;;
19879;SDS011;10102;50.828;4.416;2022-12-10T05:45:45;69.67;;;24.40;;
19879;SDS011;10102;50.828;4.416;2022-12-10T05:48:12;69.78;;;23.25;;
19879;SDS011;10102;50.828;4.416;2022-12-10T05:50:39;65.07;;;23.48;;
19879;SDS011;10102;50.828;4.416;2022-12-10T05:53:05;65.18;;;19.88;;
19879;SDS011;10102;50.828;4.416;2022-12-10T05:55:31;64.80;;;22.15;;
19879;SDS011;10102;50.828;4.416;2022-12-10T05:57:58;65.93;;;23.20;;
19879;SDS011;10102;50.828;4.416;2022-12-10T06:00:25;66.60;;;24.70;;
19879;SDS011;10102;50.828;4.416;2022-12-10T06:02:52;73.22;;;24.27;;
19879;SDS011;10102;50.828;4.416;2022-12-10T06:05:19;67.32;;;23.20;;
19879;SDS011;10102;50.828;4.416;2022-12-10T06:07:45;69.80;;;23.88;;
19879;SDS011;10102;50.828;4.416;2022-12-10T06:10:10;67.60;;;24.10;;
19879;SDS011;10102;50.828;4.416;2022-12-10T06:12:37;66.20;;;23.20;;
19879;SDS011;10102;50.828;4.416;2022-12-10T06:15:03;69.30;;;23.85;;
19879;SDS011;10102;50.828;4.416;2022-12-10T06:17:30;67.97;;;24.40;;
19879;SDS011;10102;50.828;4.416;2022-12-10T06:19:55;65.68;;;22.20;;
19879;SDS011;10102;50.828;4.416;2022-12-10T06:22:21;64.88;;;22.90;;
19879;SDS011;10102;50.828;4.416;2022-12-10T06:24:47;55.67;;;21.00;;
19879;SDS011;10102;50.828;4.416;2022-12-10T06:27:13;61.25;;;20.42;;
19879;SDS011;10102;50.828;4.416;2022-12-10T06:29:39;67.30;;;23.58;;
19879;SDS011;10102;50.828;4.416;2022-12-10T06:32:05;55.08;;;21.45;;
19879;SDS011;10102;50.828;4.416;2022-12-10T06:34:31;46.33;;;19.25;;
19879;SDS011;10102;50.828;4.416;2022-12-10T06:36:57;62.75;;;21.65;;
19879;SDS011;10102;50.828;4.416;2022-12-10T06:39:22;63.33;;;22.25;;
19879;SDS011;10102;50.828;4.416;2022-12-10T06:41:48;63.80;;;21.77;;
19879;SDS011;10102;50.828;4.416;2022-12-10T06:44:14;58.13;;;20.23;;
19879;SDS011;10102;50.828;4.416;2022-12-10T06:46:40;61.20;;;19.27;;
19879;SDS011;10102;50.828;4.416;2022-12-10T06:49:07;41.33;;;15.63;;
19879;SDS011;10102;50.828;4.416;2022-12-10T06:51:33;50.97;;;19.10;;
19879;SDS011;10102;50.828;4.416;2022-12-10T06:53:59;54.23;;;19.70;;
19879;SDS011;10102;50.828;4.416;2022-12-10T06:56:25;52.90;;;19.77;;
19879;SDS011;10102;50.828;4.416;2022-12-10T06:58:51;47.37;;;17.13;;
19879;SDS011;10102;50.828;4.416;2022-12-10T07:01:18;49.30;;;18.10;;
19879;SDS011;10102;50.828;4.416;2022-12-10T07:03:49;57.05;;;18.25;;
19879;SDS011;10102;50.828;4.416;2022-12-10T07:06:20;54.83;;;18.03;;
19879;SDS011;10102;50.828;4.416;2022-12-10T07:08:46;49.33;;;15.80;;
19879;SDS011;10102;50.828;4.416;2022-12-10T07:11:14;49.20;;;17.20;;
19879;SDS011;10102;50.828;4.416;2022-12-10T07:13:41;48.45;;;18.02;;
19879;SDS011;10102;50.828;4.416;2022-12-10T07:16:23;46.87;;;15.73;;
19879;SDS011;10102;50.828;4.416;2022-12-10T07:18:51;44.83;;;16.67;;
19879;SDS011;10102;50.828;4.416;2022-12-10T07:21:22;53.23;;;18.40;;
19879;SDS011;10102;50.828;4.416;2022-12-10T07:23:52;52.27;;;17.30;;
19879;SDS011;10102;50.828;4.416;2022-12-10T07:26:21;50.63;;;18.33;;
19879;SDS011;10102;50.828;4.416;2022-12-10T07:28:47;49.37;;;17.63;;
19879;SDS011;10102;50.828;4.416;2022-12-10T07:31:15;53.70;;;18.67;;
19879;SDS011;10102;50.828;4.416;2022-12-10T07:33:41;53.60;;;19.00;;
19879;SDS011;10102;50.828;4.416;2022-12-10T07:36:10;60.83;;;20.67;;
19879;SDS011;10102;50.828;4.416;2022-12-10T07:38:37;51.83;;;17.97;;
19879;SDS011;10102;50.828;4.416;2022-12-10T07:41:04;54.83;;;18.27;;
19879;SDS011;10102;50.828;4.416;2022-12-10T07:43:35;51.87;;;18.60;;
19879;SDS011;10102;50.828;4.416;2022-12-10T07:46:03;53.67;;;19.87;;
19879;SDS011;10102;50.828;4.416;2022-12-10T07:48:34;47.50;;;17.13;;
19879;SDS011;10102;50.828;4.416;2022-12-10T07:51:00;47.87;;;18.17;;
19879;SDS011;10102;50.828;4.416;2022-12-10T07:53:26;51.93;;;18.20;;
19879;SDS011;10102;50.828;4.416;2022-12-10T07:55:52;48.43;;;18.47;;
19879;SDS011;10102;50.828;4.416;2022-12-10T07:58:18;52.90;;;19.47;;
19879;SDS011;10102;50.828;4.416;2022-12-10T08:00:44;54.53;;;21.03;;
19879;SDS011;10102;50.828;4.416;2022-12-10T08:03:10;48.73;;;19.73;;
19879;SDS011;10102;50.828;4.416;2022-12-10T08:05:35;54.17;;;20.13;;
19879;SDS011;10102;50.828;4.416;2022-12-10T08:08:02;55.33;;;20.90;;
19879;SDS011;10102;50.828;4.416;2022-12-10T08:10:27;62.10;;;22.35;;
19879;SDS011;10102;50.828;4.416;2022-12-10T08:12:56;56.55;;;19.63;;
19879;SDS011;10102;50.828;4.416;2022-12-10T08:17:54;53.92;;;17.08;;
19879;SDS011;10102;50.828;4.416;2022-12-10T08:20:20;60.08;;;19.40;;
19879;SDS011;10102;50.828;4.416;2022-12-10T08:22:47;51.07;;;19.10;;
19879;SDS011;10102;50.828;4.416;2022-12-10T08:25:14;50.80;;;21.53;;
19879;SDS011;10102;50.828;4.416;2022-12-10T08:27:41;53.10;;;18.87;;
19879;SDS011;10102;50.828;4.416;2022-12-10T08:30:07;51.58;;;19.95;;
19879;SDS011;10102;50.828;4.416;2022-12-10T08:32:34;55.27;;;19.77;;
19879;SDS011;10102;50.828;4.416;2022-12-10T08:34:59;56.17;;;20.97;;
19879;SDS011;10102;50.828;4.416;2022-12-10T08:37:25;60.00;;;20.20;;
19879;SDS011;10102;50.828;4.416;2022-12-10T08:39:51;57.07;;;22.10;;
19879;SDS011;10102;50.828;4.416;2022-12-10T08:42:17;55.00;;;21.67;;
19879;SDS011;10102;50.828;4.416;2022-12-10T08:44:43;59.83;;;21.30;;
19879;SDS011;10102;50.828;4.416;2022-12-10T08:47:08;53.47;;;21.02;;
19879;SDS011;10102;50.828;4.416;2022-12-10T08:49:34;51.40;;;20.57;;
19879;SDS011;10102;50.828;4.416;2022-12-10T08:52:01;53.50;;;20.63;;
19879;SDS011;10102;50.828;4.416;2022-12-10T08:54:29;49.78;;;20.63;;
19879;SDS011;10102;50.828;4.416;2022-12-10T08:56:56;55.13;;;21.47;;
19879;SDS011;10102;50.828;4.416;2022-12-10T08:59:22;48.70;;;17.75;;
19879;SDS011;10102;50.828;4.416;2022-12-10T09:01:51;50.28;;;18.92;;
19879;SDS011;10102;50.828;4.416;2022-12-10T09:04:18;49.47;;;20.13;;
19879;SDS011;10102;50.828;4.416;2022-12-10T09:06:44;49.85;;;19.83;;
19879;SDS011;10102;50.828;4.416;2022-12-10T09:09:11;56.17;;;20.73;;
19879;SDS011;10102;50.828;4.416;2022-12-10T09:11:37;49.30;;;18.63;;
19879;SDS011;10102;50.828;4.416;2022-12-10T09:14:03;56.30;;;21.37;;
19879;SDS011;10102;50.828;4.416;2022-12-10T09:16:30;48.80;;;20.70;;
19879;SDS011;10102;50.828;4.416;2022-12-10T09:18:58;50.22;;;19.33;;
19879;SDS011;10102;50.828;4.416;2022-12-10T09:21:25;62.00;;;21.93;;
19879;SDS011;10102;50.828;4.416;2022-12-10T09:23:51;50.30;;;18.65;;
19879;SDS011;10102;50.828;4.416;2022-12-10T09:26:17;47.75;;;17.60;;
19879;SDS011;10102;50.828;4.416;2022-12-10T09:28:44;53.67;;;19.83;;
19879;SDS011;10102;50.828;4.416;2022-12-10T09:31:10;55.80;;;20.45;;
19879;SDS011;10102;50.828;4.416;2022-12-10T09:33:37;48.85;;;19.13;;
19879;SDS011;10102;50.828;4.416;2022-12-10T09:36:04;56.00;;;20.65;;
19879;SDS011;10102;50.828;4.416;2022-12-10T09:38:33;50.90;;;20.27;;
19879;SDS011;10102;50.828;4.416;2022-12-10T09:41:03;52.50;;;20.33;;
19879;SDS011;10102;50.828;4.416;2022-12-10T09:51:55;58.40;;;20.77;;
19879;SDS011;10102;50.828;4.416;2022-12-10T09:54:29;53.92;;;21.27;;
19879;SDS011;10102;50.828;4.416;2022-12-10T09:56:57;60.67;;;20.08;;
19879;SDS011;10102;50.828;4.416;2022-12-10T10:02:01;49.90;;;21.38;;
19879;SDS011;10102;50.828;4.416;2022-12-10T10:04:51;62.00;;;23.88;;
19879;SDS011;10102;50.828;4.416;2022-12-10T10:07:23;54.65;;;20.67;;
19879;SDS011;10102;50.828;4.416;2022-12-10T10:10:03;54.78;;;22.42;;
19879;SDS011;10102;50.828;4.416;2022-12-10T10:12:31;57.80;;;20.38;;
19879;SDS011;10102;50.828;4.416;2022-12-10T10:14:59;54.72;;;21.20;;
19879;SDS011;10102;50.828;4.416;2022-12-10T10:17:37;52.70;;;20.63;;
19879;SDS011;10102;50.828;4.416;2022-12-10T10:20:04;58.85;;;21.25;;
19879;SDS011;10102;50.828;4.416;2022-12-10T10:22:30;51.63;;;20.35;;
19879;SDS011;10102;50.828;4.416;2022-12-10T10:24:56;57.22;;;21.73;;
19879;SDS011;10102;50.828;4.416;2022-12-10T10:27:27;59.08;;;21.73;;
19879;SDS011;10102;50.828;4.416;2022-12-10T10:29:56;51.85;;;21.15;;
19879;SDS011;10102;50.828;4.416;2022-12-10T10:32:26;47.53;;;18.13;;
19879;SDS011;10102;50.828;4.416;2022-12-10T10:35:20;44.83;;;19.10;;
19879;SDS011;10102;50.828;4.416;2022-12-10T10:37:48;52.67;;;19.52;;
19879;SDS011;10102;50.828;4.416;2022-12-10T10:40:25;51.17;;;19.58;;
19879;SDS011;10102;50.828;4.416;2022-12-10T10:42:54;51.92;;;20.48;;
19879;SDS011;10102;50.828;4.416;2022-12-10T10:50:42;51.53;;;19.23;;
19879;SDS011;10102;50.828;4.416;2022-12-10T10:56:09;53.80;;;21.23;;
19879;SDS011;10102;50.828;4.416;2022-12-10T11:01:44;58.38;;;20.75;;
19879;SDS011;10102;50.828;4.416;2022-12-10T11:04:16;53.42;;;19.67;;
19879;SDS011;10102;50.828;4.416;2022-12-10T11:07:13;52.97;;;19.35;;
19879;SDS011;10102;50.828;4.416;2022-12-10T11:09:45;47.55;;;19.25;;
19879;SDS011;10102;50.828;4.416;2022-12-10T11:15:00;50.13;;;19.95;;
19879;SDS011;10102;50.828;4.416;2022-12-10T11:17:27;47.20;;;18.95;;
19879;SDS011;10102;50.828;4.416;2022-12-10T11:20:00;62.50;;;22.33;;
19879;SDS011;10102;50.828;4.416;2022-12-10T11:22:40;47.92;;;19.88;;
19879;SDS011;10102;50.828;4.416;2022-12-10T11:25:14;47.08;;;19.30;;
19879;SDS011;10102;50.828;4.416;2022-12-10T11:41:53;48.78;;;18.50;;
19879;SDS011;10102;50.828;4.416;2022-12-10T11:47:26;45.78;;;19.25;;
19879;SDS011;10102;50.828;4.416;2022-12-10T11:58:57;53.72;;;21.23;;
19879;SDS011;10102;50.828;4.416;2022-12-10T12:06:58;50.65;;;21.35;;
19879;SDS011;10102;50.828;4.416;2022-12-10T12:14:59;55.42;;;19.30;;
19879;SDS011;10102;50.828;4.416;2022-12-10T12:17:40;60.50;;;21.58;;
19879;SDS011;10102;50.828;4.416;2022-12-10T12:20:19;63.33;;;21.27;;
19879;SDS011;10102;50.828;4.416;2022-12-10T12:23:26;51.25;;;17.80;;
19879;SDS011;10102;50.828;4.416;2022-12-10T12:26:10;57.45;;;21.40;;
19879;SDS011;10102;50.828;4.416;2022-12-10T12:29:01;58.70;;;21.25;;
19879;SDS011;10102;50.828;4.416;2022-12-10T12:31:39;54.78;;;21.33;;
19879;SDS011;10102;50.828;4.416;2022-12-10T12:34:21;55.88;;;20.55;;
19879;SDS011;10102;50.828;4.416;2022-12-10T12:36:52;47.30;;;18.23;;
19879;SDS011;10102;50.828;4.416;2022-12-10T12:45:08;45.05;;;17.75;;
19879;SDS011;10102;50.828;4.416;2022-12-10T12:47:39;51.45;;;18.60;;
19879;SDS011;10102;50.828;4.416;2022-12-10T12:50:24;46.42;;;17.05;;
19879;SDS011;10102;50.828;4.416;2022-12-10T12:52:59;50.00;;;17.92;;
19879;SDS011;10102;50.828;4.416;2022-12-10T12:58:03;44.03;;;16.65;;
19879;SDS011;10102;50.828;4.416;2022-12-10T13:00:38;43.25;;;16.60;;
19879;SDS011;10102;50.828;4.416;2022-12-10T13:06:11;47.13;;;18.25;;
19879;SDS011;10102;50.828;4.416;2022-12-10T13:14:31;39.13;;;16.80;;
19879;SDS011;10102;50.828;4.416;2022-12-10T13:19:30;44.28;;;15.30;;
19879;SDS011;10102;50.828;4.416;2022-12-10T13:22:12;39.67;;;13.05;;
19879;SDS011;10102;50.828;4.416;2022-12-10T13:25:05;42.67;;;16.08;;
19879;SDS011;10102;50.828;4.416;2022-12-10T13:27:40;44.10;;;16.30;;
19879;SDS011;10102;50.828;4.416;2022-12-10T13:37:33;45.70;;;16.60;;
19879;SDS011;10102;50.828;4.416;2022-12-10T13:42:35;50.15;;;17.65;;
19879;SDS011;10102;50.828;4.416;2022-12-10T13:47:48;51.90;;;17.38;;
19879;SDS011;10102;50.828;4.416;2022-12-10T13:53:10;47.90;;;17.65;;
19879;SDS011;10102;50.828;4.416;2022-12-10T13:58:32;43.35;;;18.30;;
19879;SDS011;10102;50.828;4.416;2022-12-10T14:04:17;40.58;;;16.40;;
19879;SDS011;10102;50.828;4.416;2022-12-10T14:06:56;41.47;;;17.27;;
19879;SDS011;10102;50.828;4.416;2022-12-10T14:09:26;45.42;;;18.77;;
19879;SDS011;10102;50.828;4.416;2022-12-10T14:11:56;38.53;;;15.10;;
19879;SDS011;10102;50.828;4.416;2022-12-10T14:14:30;38.78;;;15.50;;
19879;SDS011;10102;50.828;4.416;2022-12-10T14:17:04;39.80;;;16.02;;
19879;SDS011;10102;50.828;4.416;2022-12-10T14:19:52;47.85;;;17.75;;
19879;SDS011;10102;50.828;4.416;2022-12-10T14:22:21;39.83;;;16.33;;
19879;SDS011;10102;50.828;4.416;2022-12-10T14:24:58;41.30;;;16.45;;
19879;SDS011;10102;50.828;4.416;2022-12-10T14:27:26;45.45;;;16.10;;
19879;SDS011;10102;50.828;4.416;2022-12-10T14:29:57;41.75;;;16.15;;
19879;SDS011;10102;50.828;4.416;2022-12-10T14:32:29;39.83;;;16.08;;
19879;SDS011;10102;50.828;4.416;2022-12-10T14:34:59;39.05;;;14.80;;
19879;SDS011;10102;50.828;4.416;2022-12-10T14:37:26;44.13;;;15.48;;
19879;SDS011;10102;50.828;4.416;2022-12-10T14:39:55;45.67;;;18.73;;
19879;SDS011;10102;50.828;4.416;2022-12-10T14:42:21;48.70;;;17.60;;
19879;SDS011;10102;50.828;4.416;2022-12-10T14:44:50;47.55;;;16.90;;
19879;SDS011;10102;50.828;4.416;2022-12-10T14:47:23;46.42;;;17.15;;
19879;SDS011;10102;50.828;4.416;2022-12-10T14:49:50;43.33;;;15.73;;
19879;SDS011;10102;50.828;4.416;2022-12-10T14:52:19;36.80;;;15.27;;
19879;SDS011;10102;50.828;4.416;2022-12-10T14:54:49;41.35;;;16.52;;
19879;SDS011;10102;50.828;4.416;2022-12-10T14:57:25;43.65;;;17.80;;
19879;SDS011;10102;50.828;4.416;2022-12-10T15:00:06;46.88;;;16.98;;
19879;SDS011;10102;50.828;4.416;2022-12-10T15:02:42;47.03;;;18.45;;
19879;SDS011;10102;50.828;4.416;2022-12-10T15:05:17;45.72;;;17.10;;
19879;SDS011;10102;50.828;4.416;2022-12-10T15:07:55;39.90;;;15.77;;
19879;SDS011;10102;50.828;4.416;2022-12-10T15:10:25;39.78;;;14.88;;
19879;SDS011;10102;50.828;4.416;2022-12-10T15:12:56;43.80;;;16.83;;
19879;SDS011;10102;50.828;4.416;2022-12-10T15:15:28;45.28;;;16.85;;
19879;SDS011;10102;50.828;4.416;2022-12-10T15:18:03;44.83;;;17.30;;
19879;SDS011;10102;50.828;4.416;2022-12-10T15:20:48;48.20;;;16.83;;
19879;SDS011;10102;50.828;4.416;2022-12-10T15:30:48;46.47;;;18.35;;
19879;SDS011;10102;50.828;4.416;2022-12-10T15:33:23;42.50;;;18.20;;
19879;SDS011;10102;50.828;4.416;2022-12-10T15:39:02;39.80;;;17.92;;
19879;SDS011;10102;50.828;4.416;2022-12-10T15:41:46;47.65;;;18.58;;
19879;SDS011;10102;50.828;4.416;2022-12-10T15:47:25;44.42;;;17.17;;
19879;SDS011;10102;50.828;4.416;2022-12-10T15:49:53;46.10;;;18.05;;
19879;SDS011;10102;50.828;4.416;2022-12-10T15:52:23;41.53;;;16.38;;
19879;SDS011;10102;50.828;4.416;2022-12-10T15:54:51;41.22;;;17.25;;
19879;SDS011;10102;50.828;4.416;2022-12-10T15:57:20;40.63;;;16.42;;
19879;SDS011;10102;50.828;4.416;2022-12-10T15:59:46;44.83;;;17.65;;
19879;SDS011;10102;50.828;4.416;2022-12-10T16:02:34;43.58;;;17.10;;
19879;SDS011;10102;50.828;4.416;2022-12-10T16:05:16;49.30;;;17.77;;
19879;SDS011;10102;50.828;4.416;2022-12-10T16:07:43;45.63;;;18.02;;
19879;SDS011;10102;50.828;4.416;2022-12-10T16:10:10;42.35;;;18.70;;
19879;SDS011;10102;50.828;4.416;2022-12-10T16:12:38;46.08;;;18.45;;
19879;SDS011;10102;50.828;4.416;2022-12-10T16:15:05;63.63;;;23.98;;
19879;SDS011;10102;50.828;4.416;2022-12-10T16:17:33;53.28;;;22.05;;
19879;SDS011;10102;50.828;4.416;2022-12-10T16:20:32;52.15;;;21.15;;
19879;SDS011;10102;50.828;4.416;2022-12-10T16:22:52;49.88;;;20.90;;
19879;SDS011;10102;50.828;4.416;2022-12-10T16:25:18;51.08;;;20.42;;
19879;SDS011;10102;50.828;4.416;2022-12-10T16:27:44;55.03;;;19.80;;
19879;SDS011;10102;50.828;4.416;2022-12-10T16:32:40;52.92;;;20.90;;
19879;SDS011;10102;50.828;4.416;2022-12-10T16:35:06;48.72;;;20.92;;
19879;SDS011;10102;50.828;4.416;2022-12-10T16:37:32;45.10;;;18.75;;
19879;SDS011;10102;50.828;4.416;2022-12-10T16:39:58;40.13;;;16.83;;
19879;SDS011;10102;50.828;4.416;2022-12-10T16:42:24;48.50;;;20.58;;
19879;SDS011;10102;50.828;4.416;2022-12-10T16:44:50;58.50;;;23.40;;
19879;SDS011;10102;50.828;4.416;2022-12-10T16:47:15;43.53;;;16.95;;
19879;SDS011;10102;50.828;4.416;2022-12-10T16:49:41;47.15;;;19.92;;
19879;SDS011;10102;50.828;4.416;2022-12-10T16:52:10;57.70;;;19.15;;
19879;SDS011;10102;50.828;4.416;2022-12-10T16:54:40;55.58;;;21.70;;